Kohat Weather



Kohat's Current Weather

Temprature 20o scattered clouds

scattered clouds

Rain: 0 %

Min Temprature20o
Max Temprature20o
Humidity28
Wind Speed5.1 m/h
Sun Rise06:49:57
Sun Set18:05:41
Current Time: 23-Feb-2019 15:48:51
Lat/Lon: 33.6, 71.44




Kohat's Geo Location




Kohat's Weather Forecast

Time Overall Temp Min Temp Max Temp Humidity Wind Speed Rain
23-Feb-2019 (Sat)
17:00:00 clear sky 18.540 17.249 18.540 28 1.31 m/h 0 %
20:00:00 clear sky 6.880 5.909 6.880 61 1.22 m/h 0 %
23:00:00 clear sky 2.110 1.465 2.110 81 0.92 m/h 0 %
24-Feb-2019 (Sun)
02:00:00 clear sky 1.930 1.610 1.930 67 2.31 m/h 0 %
05:00:00 clear sky 1.667 1.667 1.667 52 2.26 m/h 0 %
08:00:00 clear sky 4.828 4.828 4.828 35 2.26 m/h 0 %
11:00:00 clear sky 15.799 15.799 15.799 29 1.56 m/h 0 %
14:00:00 few clouds 18.356 18.356 18.356 29 1.62 m/h 0 %
17:00:00 light rain 12.646 12.646 12.646 68 0.7 m/h 102 %
20:00:00 light rain 8.493 8.493 8.493 75 2.36 m/h 21 %
23:00:00 light rain 6.586 6.586 6.586 87 1.51 m/h 15 %
25-Feb-2019 (Mon)
02:00:00 light rain 5.655 5.655 5.655 97 1.12 m/h 139 %
05:00:00 light rain 5.627 5.627 5.627 96 1.06 m/h 172 %
08:00:00 light rain 6.770 6.770 6.770 94 1.42 m/h 249 %
11:00:00 heavy intensity rain 7.672 7.672 7.672 93 1.61 m/h 1,421 %
14:00:00 moderate rain 8.273 8.273 8.273 90 1.47 m/h 971 %
17:00:00 light rain 7.687 7.687 7.687 95 1.51 m/h 246 %
20:00:00 light rain 5.473 5.473 5.473 97 1.11 m/h 4 %
23:00:00 scattered clouds 0.742 0.742 0.742 87 1.06 m/h 0 %
26-Feb-2019 (Tue)
02:00:00 few clouds -1.099 -1.099 -1.099 82 1.06 m/h 0 %
05:00:00 few clouds -2.478 -2.478 -2.478 76 1.66 m/h 0 %
08:00:00 clear sky 1.132 1.132 1.132 78 1.22 m/h 0 %
11:00:00 few clouds 9.767 9.767 9.767 92 1.62 m/h 0 %
14:00:00 scattered clouds 10.821 10.821 10.821 87 1.66 m/h 0 %
17:00:00 scattered clouds 10.139 10.139 10.139 84 1.21 m/h 0 %
20:00:00 scattered clouds 3.561 3.561 3.561 92 1.07 m/h 0 %
23:00:00 clear sky 0.073 0.073 0.073 84 1.17 m/h 0 %
27-Feb-2019 (Wed)
02:00:00 clear sky -1.944 -1.944 -1.944 78 1.91 m/h 0 %
05:00:00 clear sky -3.006 -3.006 -3.006 75 1.5 m/h 0 %
08:00:00 clear sky 0.515 0.515 0.515 72 1.87 m/h 0 %
11:00:00 clear sky 10.195 10.195 10.195 87 1.61 m/h 0 %
14:00:00 clear sky 12.861 12.861 12.861 75 1.55 m/h 0 %
17:00:00 few clouds 12.648 12.648 12.648 60 1.31 m/h 0 %
20:00:00 light rain 6.292 6.292 6.292 93 0.97 m/h 46 %
23:00:00 light rain 6.066 6.066 6.066 97 1.07 m/h 143 %
28-Feb-2019 (Thu)
02:00:00 light rain 6.091 6.091 6.091 96 1.16 m/h 93 %
05:00:00 light rain 5.388 5.388 5.388 98 1.16 m/h 29 %
08:00:00 light rain 5.265 5.265 5.265 94 1.16 m/h 26 %
11:00:00 broken clouds 10.797 10.797 10.797 71 1.51 m/h 0 %
14:00:00 broken clouds 12.229 12.229 12.229 64 1.57 m/h 0 %

Famous Cities (60)